KRRL/RRL METAR and TAF weather

Enter ICAO airport designator
Station Type Date Time Source
KRRL METAR 2019/08/18 09:15 UTC NOAA

KRRL 180915Z AUTO 13005KT 10SM BKN120 18/18 A2973 RMK AO2 T01790175 TSNO


Station Type Date Time Source
KRRL Decoded METAR 2019/08/18 09:15 UTC NOAA

Station name not available
Aug 18, 2019 - 05:15 AM EDT / 2019.08.18 0915 UTC
Wind: from the SE (130 degrees) at 6 MPH (5 KT):0
Visibility: 10 mile(s):0
Sky conditions: mostly cloudy
Temperature: 64.2 F (17.9 C)
Dew Point: 63.5 F (17.5 C)
Relative Humidity: 97%
Pressure (altimeter): 29.73 in. Hg (1006 hPa)
ob: KRRL 180915Z AUTO 13005KT 10SM BKN120 18/18 A2973 RMK AO2 T01790175 TSNO
cycle: 9

Station Type Date Time Source
KRRL TAF UTC NOAA

Error!

Example: see airport list